TAF KPNS
KPNS 270520Z 2706/2806 01006KT P6SM SCT250 FM271500 07005KT P6SM SCT250 FM280000 00000KT P6SM BKN250=
METAR KPNS
WC KPNS
WS KPNS
WV KPNS